createdAt,value
2022-09-20T00:00:45.647Z,100729.22
2022-09-20T00:03:19.091Z,100738.13
2022-09-20T00:05:51.530Z,100747.88
2022-09-20T00:08:24.139Z,100754.53
2022-09-20T00:11:19.122Z,100740.25
2022-09-20T00:13:55.009Z,100732.97
2022-09-20T00:16:33.851Z,100757.06
2022-09-20T00:19:09.459Z,100753.75
2022-09-20T00:21:42.807Z,100760.84
2022-09-20T00:24:15.543Z,100746.31
2022-09-20T00:26:47.996Z,100767.47
2022-09-20T00:29:20.453Z,100765.81
2022-09-20T00:31:52.937Z,100773.28
2022-09-20T00:34:43.906Z,100775.16
2022-09-20T00:37:16.524Z,100767.66
2022-09-20T00:39:48.976Z,100765.41
2022-09-20T00:42:21.359Z,100780.50
2022-09-20T00:45:01.408Z,100776.97
2022-09-20T00:48:03.705Z,100682.59
2022-09-20T00:50:39.648Z,100785.72
2022-09-20T00:53:16.355Z,100810.81
2022-09-20T00:55:58.742Z,100781.56
2022-09-20T00:58:35.103Z,100787.34
2022-09-20T01:01:08.790Z,100807.28
2022-09-20T01:03:43.617Z,100792.75
2022-09-20T01:06:18.905Z,100731.09
2022-09-20T01:08:56.547Z,100811.59
2022-09-20T01:11:30.486Z,100806.41
2022-09-20T01:14:03.379Z,100822.84
2022-09-20T01:16:36.655Z,100818.88
2022-09-20T01:19:37.331Z,100726.78
2022-09-20T01:22:23.240Z,100755.38
2022-09-20T01:25:27.334Z,100818.44
2022-09-20T01:28:00.393Z,100830.09
2022-09-20T01:30:49.117Z,100819.72
2022-09-20T01:33:39.488Z,100838.97
2022-09-20T01:36:15.791Z,100825.03
2022-09-20T01:38:59.464Z,100821.28
2022-09-20T01:41:37.994Z,100825.03
2022-09-20T01:44:29.964Z,100836.91
2022-09-20T01:47:13.308Z,100745.81
2022-09-20T01:50:09.108Z,100836.50
2022-09-20T01:53:02.186Z,100835.81
2022-09-20T01:56:07.764Z,100766.34
2022-09-20T01:59:24.726Z,100843.75
2022-09-20T02:02:09.283Z,100838.09
2022-09-20T02:05:37.933Z,100841.69
2022-09-20T02:08:31.334Z,100836.00
2022-09-20T02:11:18.354Z,100831.00
2022-09-20T02:14:03.462Z,100836.78
2022-09-20T02:17:20.277Z,100818.75
2022-09-20T02:20:02.216Z,100816.78
2022-09-20T02:22:53.230Z,100726.59
2022-09-20T02:25:44.109Z,100814.63
2022-09-20T02:28:37.013Z,100824.19
2022-09-20T02:31:42.126Z,100820.03
2022-09-20T02:34:41.275Z,100823.19
2022-09-20T02:37:35.054Z,100823.00
2022-09-20T02:40:33.154Z,100745.63
2022-09-20T02:43:30.545Z,100825.25
2022-09-20T02:46:03.202Z,100819.75
2022-09-20T02:49:04.790Z,100816.31
2022-09-20T02:51:58.047Z,100745.09
2022-09-20T02:54:39.125Z,100817.19
2022-09-20T02:58:02.650Z,100823.31
2022-09-20T03:00:49.229Z,100810.41
2022-09-20T03:03:35.686Z,100733.47
2022-09-20T03:06:23.407Z,100811.63
2022-09-20T03:09:33.406Z,100756.31
2022-09-20T03:12:45.262Z,100826.38
2022-09-20T03:15:49.348Z,100820.50
2022-09-20T03:18:43.684Z,100814.84
2022-09-20T03:22:36.473Z,100747.13
2022-09-20T03:25:55.852Z,100806.53
2022-09-20T03:29:10.099Z,100805.06
2022-09-20T03:32:44.537Z,100723.41
2022-09-20T03:36:00.470Z,100790.66
2022-09-20T03:39:24.709Z,100782.53
2022-09-20T03:42:23.269Z,100787.84
2022-09-20T03:45:39.866Z,100783.53
2022-09-20T03:48:24.846Z,100777.44
2022-09-20T03:51:17.946Z,100773.22
2022-09-20T03:53:53.448Z,100764.81
2022-09-20T03:56:37.713Z,100766.47
2022-09-20T03:59:31.053Z,100766.25
2022-09-20T04:02:36.601Z,100769.47
2022-09-20T04:05:16.093Z,100698.22
2022-09-20T04:07:51.761Z,100754.50
2022-09-20T04:10:50.983Z,100747.50
2022-09-20T04:13:36.219Z,100743.00
2022-09-20T04:16:43.292Z,100735.09
2022-09-20T04:19:43.206Z,100664.72
2022-09-20T04:22:16.382Z,100700.13
2022-09-20T04:25:29.252Z,100703.72
2022-09-20T04:28:30.624Z,100695.06
2022-09-20T04:31:14.563Z,100693.00
2022-09-20T04:33:52.058Z,100592.59
2022-09-20T04:37:00.336Z,100679.63
2022-09-20T04:40:18.028Z,100672.09
2022-09-20T04:43:11.613Z,100668.03
2022-09-20T04:46:38.766Z,100649.97
2022-09-20T04:49:16.978Z,100648.69
2022-09-20T04:52:26.044Z,100651.25
2022-09-20T04:55:11.825Z,100623.31
2022-09-20T04:58:28.622Z,100650.19
2022-09-20T05:01:44.027Z,100560.59
2022-09-20T05:04:46.878Z,100612.28
2022-09-20T05:07:52.970Z,100575.81
2022-09-20T05:10:54.360Z,100596.00
2022-09-20T05:14:04.583Z,100587.53
2022-09-20T05:17:16.361Z,100566.06
2022-09-20T05:20:18.510Z,100575.53
2022-09-20T05:23:00.509Z,100574.72
2022-09-20T05:26:08.675Z,100570.34
2022-09-20T05:29:11.659Z,100582.03
2022-09-20T05:32:03.725Z,100568.84
2022-09-20T05:34:40.695Z,100554.34
2022-09-20T05:37:28.694Z,100564.13
2022-09-20T05:40:25.144Z,100555.41
2022-09-20T05:43:12.888Z,100473.41
2022-09-20T05:46:13.157Z,100544.09
2022-09-20T05:49:01.125Z,100543.63
2022-09-20T05:51:54.896Z,100525.69
2022-09-20T05:54:38.971Z,100517.78
2022-09-20T05:57:39.184Z,100521.91
2022-09-20T06:00:22.377Z,100470.16
2022-09-20T06:03:06.857Z,100526.28
2022-09-20T06:06:09.057Z,100518.25
2022-09-20T06:08:53.057Z,100525.31
2022-09-20T06:11:45.488Z,100516.31
2022-09-20T06:14:40.321Z,100432.28
2022-09-20T06:17:21.301Z,100510.88
2022-09-20T06:20:21.812Z,100496.09
2022-09-20T06:23:00.762Z,100495.16
2022-09-20T06:25:33.183Z,100491.16
2022-09-20T06:28:15.002Z,100487.03
2022-09-20T06:30:53.754Z,100344.13
2022-09-20T06:33:30.537Z,100324.56
2022-09-20T06:36:42.672Z,100461.78
2022-09-20T06:40:10.287Z,100451.19
2022-09-20T06:42:43.755Z,100427.81
2022-09-20T06:45:16.417Z,100427.13
2022-09-20T06:47:48.839Z,100454.00
2022-09-20T06:50:21.361Z,100449.13
2022-09-20T06:52:55.142Z,100439.94
2022-09-20T06:55:34.142Z,100291.81
2022-09-20T06:58:06.556Z,100431.31
2022-09-20T07:00:41.255Z,100427.31
2022-09-20T07:03:14.608Z,100414.13
2022-09-20T07:05:47.980Z,100402.06
2022-09-20T07:08:20.491Z,100434.16
2022-09-20T07:10:53.112Z,100433.34
2022-09-20T07:13:25.829Z,100413.16
2022-09-20T07:16:07.218Z,100397.34
2022-09-20T07:18:39.740Z,100406.75
2022-09-20T07:21:17.540Z,100362.59
2022-09-20T07:23:55.602Z,100382.16
2022-09-20T07:26:30.683Z,100394.25
2022-09-20T07:29:03.860Z,100380.59
2022-09-20T07:31:37.122Z,100399.53
2022-09-20T07:34:09.917Z,100393.88
2022-09-20T07:36:42.271Z,100396.59
2022-09-20T07:39:15.039Z,100387.19
2022-09-20T07:41:50.064Z,100396.09
2022-09-20T07:44:25.829Z,100389.59
2022-09-20T07:47:03.355Z,100385.16
2022-09-20T07:49:35.756Z,100387.97
2022-09-20T07:52:09.282Z,100381.13
2022-09-20T07:54:41.769Z,100366.63
2022-09-20T07:57:14.931Z,100393.59
2022-09-20T07:59:47.301Z,100393.34
2022-09-20T08:02:20.122Z,100379.56
2022-09-20T08:04:53.530Z,100357.28
2022-09-20T08:07:26.262Z,100355.50
2022-09-20T08:09:58.798Z,100323.00
2022-09-20T08:15:26.145Z,100345.69
2022-09-20T08:17:58.825Z,100353.38
2022-09-20T08:20:31.198Z,100329.22
2022-09-20T08:23:22.510Z,100373.16
2022-09-20T08:25:59.722Z,100375.28
2022-09-20T08:28:33.096Z,100384.59
2022-09-20T08:31:07.506Z,100259.56
2022-09-20T08:33:40.153Z,100396.88
2022-09-20T08:36:16.556Z,100327.94
2022-09-20T08:41:58.176Z,100395.09
2022-09-20T08:44:38.539Z,100327.94
2022-09-20T08:47:27.634Z,100390.13
2022-09-20T08:50:09.047Z,100341.63
2022-09-20T08:52:43.953Z,100398.50
2022-09-20T08:55:37.240Z,100400.16
2022-09-20T08:58:15.737Z,100389.88
2022-09-20T09:00:49.315Z,100390.47
2022-09-20T09:03:22.080Z,100379.72
2022-09-20T09:05:59.746Z,100381.72
2022-09-20T09:08:40.386Z,100280.41
2022-09-20T09:11:19.044Z,100354.09
2022-09-20T09:14:28.218Z,100380.75
2022-09-20T09:17:02.417Z,100383.22
2022-09-20T09:19:50.851Z,100398.34
2022-09-20T09:22:44.736Z,100385.75
2022-09-20T09:25:19.943Z,100383.41
2022-09-20T09:28:07.595Z,100314.53
2022-09-20T09:30:45.178Z,100300.75
2022-09-20T09:33:32.152Z,100378.28
2022-09-20T09:36:19.221Z,100385.00
2022-09-20T09:38:52.189Z,100375.25
2022-09-20T09:41:31.439Z,100361.09
2022-09-20T09:44:29.219Z,100374.50
2022-09-20T09:47:02.366Z,100319.16
2022-09-20T09:49:41.355Z,100331.38
2022-09-20T09:52:15.872Z,100347.28
2022-09-20T09:55:06.698Z,100368.41
2022-09-20T09:57:44.799Z,100367.44
2022-09-20T10:00:25.594Z,100283.34
2022-09-20T10:03:32.634Z,100382.53
2022-09-20T10:06:37.575Z,100381.56
2022-09-20T10:09:31.114Z,100359.94
2022-09-20T10:12:15.459Z,100397.03
2022-09-20T10:15:24.664Z,100401.06
2022-09-20T10:18:23.693Z,100381.34
2022-09-20T10:21:16.374Z,100339.88
2022-09-20T10:24:11.607Z,100418.84
2022-09-20T10:27:09.847Z,100423.03
2022-09-20T10:30:03.343Z,100430.69
2022-09-20T10:33:03.174Z,100435.75
2022-09-20T10:36:06.660Z,100398.53
2022-09-20T10:39:20.088Z,100437.19
2022-09-20T10:42:10.774Z,100445.19
2022-09-20T10:44:43.213Z,100448.47
2022-09-20T10:47:24.323Z,100457.69
2022-09-20T10:50:06.605Z,100473.50
2022-09-20T10:52:48.392Z,100464.41
2022-09-20T10:55:41.925Z,100391.03
2022-09-20T10:58:26.229Z,100482.59
2022-09-20T11:01:25.301Z,100451.84
2022-09-20T11:04:09.820Z,100488.63
2022-09-20T11:06:59.930Z,100485.91
2022-09-20T11:09:39.852Z,100481.50
2022-09-20T11:12:27.617Z,100488.72
2022-09-20T11:15:26.851Z,100505.16
2022-09-20T11:18:06.271Z,100489.94
2022-09-20T11:20:55.920Z,100421.69
2022-09-20T11:23:43.897Z,100427.44
2022-09-20T11:26:29.243Z,100426.63
2022-09-20T11:29:22.523Z,100437.47
2022-09-20T11:32:00.691Z,100445.63
2022-09-20T11:34:42.002Z,100521.78
2022-09-20T11:37:15.126Z,100530.88
2022-09-20T11:39:57.290Z,100420.75
2022-09-20T11:42:35.726Z,100521.47
2022-09-20T11:45:08.853Z,100543.16
2022-09-20T11:47:57.237Z,100533.25
2022-09-20T11:50:58.669Z,100546.59
2022-09-20T11:53:49.200Z,100556.72
2022-09-20T11:56:27.445Z,100561.94
2022-09-20T11:59:05.752Z,100561.81
2022-09-20T12:01:41.249Z,100581.75
2022-09-20T12:04:33.431Z,100569.84
2022-09-20T12:07:12.495Z,100582.13
2022-09-20T12:09:57.698Z,100445.28
2022-09-20T12:12:39.147Z,100580.81
2022-09-20T12:15:32.030Z,100587.78
2022-09-20T12:18:29.444Z,100497.59
2022-09-20T12:21:07.422Z,100601.59
2022-09-20T12:23:43.871Z,100611.38
2022-09-20T12:26:24.913Z,100625.16
2022-09-20T12:29:00.277Z,100562.34
2022-09-20T12:31:35.751Z,100648.16
2022-09-20T12:34:14.751Z,100658.19
2022-09-20T12:36:57.581Z,100658.47
2022-09-20T12:39:31.920Z,100662.69
2022-09-20T12:42:16.892Z,100664.06
2022-09-20T12:44:52.563Z,100667.25
2022-09-20T12:47:32.640Z,100672.53
2022-09-20T12:50:43.051Z,100653.84
2022-09-20T12:53:18.492Z,100615.72
2022-09-20T12:56:23.240Z,100691.50
2022-09-20T12:58:58.005Z,100699.34
2022-09-20T13:01:33.526Z,100691.66
2022-09-20T13:04:43.535Z,100701.25
2022-09-20T13:07:38.930Z,100711.00
2022-09-20T13:10:27.824Z,100665.28
2022-09-20T13:13:05.997Z,100646.63
2022-09-20T13:15:40.304Z,100702.47
2022-09-20T13:18:18.055Z,100670.97
2022-09-20T13:20:51.099Z,100711.47
2022-09-20T13:23:33.883Z,100680.97
2022-09-20T13:26:11.612Z,100764.19
2022-09-20T13:28:53.999Z,100688.19
2022-09-20T13:31:27.681Z,100700.69
2022-09-20T13:34:27.579Z,100792.69
2022-09-20T13:37:05.405Z,100766.31
2022-09-20T13:39:39.780Z,100793.75
2022-09-20T13:42:23.508Z,100801.25
2022-09-20T13:44:56.307Z,100794.03
2022-09-20T13:47:34.082Z,100804.19
2022-09-20T13:50:29.189Z,100745.16
2022-09-20T13:53:05.023Z,100812.13
2022-09-20T13:55:41.426Z,100728.75
2022-09-20T13:58:33.252Z,100802.59
2022-09-20T14:01:23.236Z,100806.13
2022-09-20T14:04:06.841Z,100719.66
2022-09-20T14:06:46.323Z,100801.97
2022-09-20T14:09:43.848Z,100799.75
2022-09-20T14:12:20.916Z,100799.72
2022-09-20T14:14:56.393Z,100769.00
2022-09-20T14:17:35.741Z,100804.72
2022-09-20T14:20:29.755Z,100794.78
2022-09-20T14:26:45.097Z,100794.38
2022-09-20T14:30:17.605Z,100787.34
2022-09-20T14:33:02.541Z,100788.16
2022-09-20T14:36:07.635Z,100783.97
2022-09-20T14:39:06.082Z,100784.66
2022-09-20T14:42:33.873Z,100742.53
2022-09-20T14:48:57.853Z,100778.44
2022-09-20T14:51:44.377Z,100772.00
2022-09-20T15:00:32.850Z,100762.44
2022-09-20T15:04:11.753Z,100737.97
2022-09-20T15:10:30.020Z,100770.16
2022-09-20T15:13:39.892Z,100724.56
2022-09-20T15:17:07.841Z,100793.88
2022-09-20T15:20:09.437Z,100793.44
2022-09-20T15:22:54.329Z,100807.38
2022-09-20T15:29:24.343Z,100799.50
2022-09-20T15:35:27.734Z,100787.47
2022-09-20T15:41:31.530Z,100786.22
2022-09-20T15:44:13.293Z,100790.38
2022-09-20T15:47:04.457Z,100784.16
2022-09-20T15:49:53.335Z,100788.28
2022-09-20T15:55:56.242Z,100779.13
2022-09-20T15:58:45.911Z,100775.41
2022-09-20T16:01:28.503Z,100775.84
2022-09-20T16:04:21.274Z,100698.00
2022-09-20T16:07:04.436Z,100768.38
2022-09-20T16:09:55.071Z,100767.72
2022-09-20T16:12:46.317Z,100761.50
2022-09-20T16:15:35.317Z,100761.09
2022-09-20T16:18:39.372Z,100766.50
2022-09-20T16:21:25.248Z,100723.75
2022-09-20T16:24:11.249Z,100743.47
2022-09-20T16:27:09.738Z,100751.09
2022-09-20T16:30:02.786Z,100751.28
2022-09-20T16:32:43.253Z,100747.94
2022-09-20T16:35:27.118Z,100742.94
2022-09-20T16:38:08.413Z,100725.50
2022-09-20T16:40:53.695Z,100716.38
2022-09-20T16:43:36.615Z,100649.59
2022-09-20T16:46:12.223Z,100705.75
2022-09-20T16:48:50.358Z,100709.06
2022-09-20T16:51:30.891Z,100656.44
2022-09-20T16:54:18.900Z,100641.69
2022-09-20T16:57:03.658Z,100697.25
2022-09-20T16:59:37.108Z,100699.75
2022-09-20T17:02:15.952Z,100610.81
2022-09-20T17:04:52.871Z,100695.63
2022-09-20T17:07:34.408Z,100708.06
2022-09-20T17:10:18.696Z,100706.00
2022-09-20T17:13:00.284Z,100688.56
2022-09-20T17:15:37.214Z,100684.81
2022-09-20T17:18:15.474Z,100683.56
2022-09-20T17:20:54.622Z,100670.69
2022-09-20T17:23:28.358Z,100668.38
2022-09-20T17:26:07.824Z,100643.31
2022-09-20T17:28:53.088Z,100656.38
2022-09-20T17:31:33.964Z,100644.78
2022-09-20T17:34:09.337Z,100581.31
2022-09-20T17:36:44.984Z,100667.59
2022-09-20T17:39:18.491Z,100644.97
2022-09-20T17:41:52.359Z,100656.16
2022-09-20T17:44:25.557Z,100639.19
2022-09-20T17:46:58.303Z,100648.09
2022-09-20T17:49:31.674Z,100637.28
2022-09-20T17:52:04.318Z,100621.75
2022-09-20T17:54:36.780Z,100633.13
2022-09-20T17:57:09.307Z,100591.44
2022-09-20T17:59:41.692Z,100626.09
2022-09-20T18:02:14.116Z,100622.97
2022-09-20T18:04:46.859Z,100621.31
2022-09-20T18:07:19.298Z,100619.06
2022-09-20T18:09:52.153Z,100615.31
2022-09-20T18:12:24.643Z,100599.13
2022-09-20T18:14:58.464Z,100615.91
2022-09-20T18:17:30.896Z,100615.06
2022-09-20T18:20:04.316Z,100610.09
2022-09-20T18:22:36.986Z,100596.03
2022-09-20T18:25:09.681Z,100599.72
2022-09-20T18:27:42.609Z,100591.00
2022-09-20T18:30:15.352Z,100590.41
2022-09-20T18:32:52.439Z,100596.84
2022-09-20T18:35:24.845Z,100587.09
2022-09-20T18:37:57.217Z,100581.69
2022-09-20T18:40:31.265Z,100584.84
2022-09-20T18:43:04.769Z,100578.19
2022-09-20T18:45:37.399Z,100590.22
2022-09-20T18:48:10.372Z,100579.03
2022-09-20T18:50:42.787Z,100577.34
2022-09-20T18:53:15.252Z,100579.88
2022-09-20T18:55:48.074Z,100580.69
2022-09-20T18:58:25.101Z,100506.94
2022-09-20T19:01:15.628Z,100505.69
2022-09-20T19:04:12.839Z,100581.34
2022-09-20T19:07:00.392Z,100506.13
2022-09-20T19:09:47.814Z,100499.09
2022-09-20T19:12:36.253Z,100579.91
2022-09-20T19:15:17.124Z,100575.75
2022-09-20T19:18:26.358Z,100579.94
2022-09-20T19:21:19.979Z,100574.13
2022-09-20T19:24:18.083Z,100584.06
2022-09-20T19:26:51.226Z,100580.75
2022-09-20T19:29:27.242Z,100589.88
2022-09-20T19:32:02.379Z,100483.75
2022-09-20T19:34:35.483Z,100578.69
2022-09-20T19:37:29.353Z,100575.81
2022-09-20T19:40:22.675Z,100572.47
2022-09-20T19:43:25.245Z,100531.81
2022-09-20T19:46:28.426Z,100522.09
2022-09-20T19:49:17.239Z,100574.75
2022-09-20T19:51:49.902Z,100571.63
2022-09-20T19:54:22.808Z,100569.38
2022-09-20T19:57:00.836Z,100493.72
2022-09-20T19:59:34.147Z,100559.81
2022-09-20T20:02:07.156Z,100562.53
2022-09-20T20:04:40.510Z,100565.66
2022-09-20T20:07:18.333Z,100562.94
2022-09-20T20:09:56.417Z,100560.25
2022-09-20T20:12:34.863Z,100557.75
2022-09-20T20:15:47.528Z,100555.88
2022-09-20T20:18:35.851Z,100475.28
2022-09-20T20:21:26.192Z,100508.03
2022-09-20T20:24:21.528Z,100561.25
2022-09-20T20:26:53.987Z,100577.88
2022-09-20T20:29:26.424Z,100567.09
2022-09-20T20:31:58.897Z,100573.72
2022-09-20T20:34:31.725Z,100578.31
2022-09-20T20:37:04.412Z,100579.94
2022-09-20T20:39:37.115Z,100573.72
2022-09-20T20:42:14.261Z,100579.13
2022-09-20T20:44:46.994Z,100583.06
2022-09-20T20:47:19.367Z,100579.56
2022-09-20T20:49:54.964Z,100570.00
2022-09-20T20:52:27.573Z,100579.97
2022-09-20T20:55:01.675Z,100569.19
2022-09-20T20:57:35.248Z,100571.25
2022-09-20T21:00:08.759Z,100569.56
2022-09-20T21:02:41.150Z,100564.59
2022-09-20T21:05:16.945Z,100572.69
2022-09-20T21:07:53.892Z,100426.19
2022-09-20T21:10:26.403Z,100564.59
2022-09-20T21:12:59.079Z,100562.97
2022-09-20T21:15:31.601Z,100562.53
2022-09-20T21:18:04.189Z,100554.66
2022-09-20T21:20:37.324Z,100565.03
2022-09-20T21:23:10.695Z,100554.25
2022-09-20T21:25:43.575Z,100544.28
2022-09-20T21:28:16.177Z,100556.34
2022-09-20T21:30:48.624Z,100559.63
2022-09-20T21:33:21.092Z,100559.03
2022-09-20T21:35:54.067Z,100560.06
2022-09-20T21:38:26.414Z,100565.44
2022-09-20T21:41:10.272Z,100536.03
2022-09-20T21:43:48.005Z,100556.13
2022-09-20T21:46:23.033Z,100465.09
2022-09-20T21:48:55.851Z,100558.41
2022-09-20T21:51:32.694Z,100569.81
2022-09-20T21:54:07.729Z,100551.97
2022-09-20T21:56:42.770Z,100487.91
2022-09-20T21:59:15.345Z,100486.66
2022-09-20T22:01:48.019Z,100548.88
2022-09-20T22:04:20.510Z,100552.00
2022-09-20T22:06:54.285Z,100548.47
2022-09-20T22:09:26.680Z,100544.91
2022-09-20T22:11:59.253Z,100534.56
2022-09-20T22:14:31.708Z,100556.34
2022-09-20T22:17:04.104Z,100522.31
2022-09-20T22:19:37.002Z,100480.03
2022-09-20T22:22:10.460Z,100534.56
2022-09-20T22:24:42.978Z,100556.97
2022-09-20T22:27:15.351Z,100555.50
2022-09-20T22:29:47.758Z,100554.28
2022-09-20T22:32:20.154Z,100554.28
2022-09-20T22:34:52.693Z,100533.34
2022-09-20T22:37:25.122Z,100546.00
2022-09-20T22:39:57.738Z,100561.13
2022-09-20T22:42:30.267Z,100565.06
2022-09-20T22:45:02.654Z,100573.97
2022-09-20T22:47:35.422Z,100578.31
2022-09-20T22:50:08.790Z,100577.91
2022-09-20T22:52:41.329Z,100584.97
2022-09-20T22:55:14.053Z,100584.97
2022-09-20T22:57:46.538Z,100579.97
2022-09-20T23:00:19.453Z,100594.72
2022-09-20T23:02:52.391Z,100586.22
2022-09-20T23:05:25.141Z,100584.56
2022-09-20T23:07:57.788Z,100582.88
2022-09-20T23:10:30.478Z,100587.88
2022-09-20T23:13:03.989Z,100595.53
2022-09-20T23:15:36.812Z,100583.09
2022-09-20T23:18:09.255Z,100596.75
2022-09-20T23:20:41.669Z,100606.09
2022-09-20T23:23:14.120Z,100601.50
2022-09-20T23:25:46.559Z,100611.91
2022-09-20T23:28:22.227Z,100615.63
2022-09-20T23:30:54.988Z,100619.38
2022-09-20T23:33:27.412Z,100614.81
2022-09-20T23:35:59.936Z,100624.53
2022-09-20T23:38:32.267Z,100635.13
2022-09-20T23:41:10.111Z,100636.78
2022-09-20T23:43:43.794Z,100655.25
2022-09-20T23:46:18.715Z,100659.78
2022-09-20T23:48:54.501Z,100658.75
2022-09-20T23:51:28.007Z,100603.59
2022-09-20T23:54:00.865Z,100669.09
2022-09-20T23:56:34.483Z,100676.34
2022-09-20T23:59:06.902Z,100647.47
